Meteorología y climatología de Navarra
Datos de la estación - Meteo Navarra

Estación de Eltzaburu GN

Altitud 588 m.


Datos desde el 23/05/2020 hasta el 24/05/2020 en horario solar
Los datos son PROVISIONALES

Anterior Página 1 de 1 Siguiente Descargar: Formato para Excel 2000 o superior   Formato csv   Formato para OpenOffice Calc
Fecha Temperatura Humedad relativa Radiación global Insolación Precipitación Vel. viento 10 m Vel. viento 10 m Dir. viento 10 m
ºC % W/m² s l/m² m/s km/h º
23/05/2020 0:00 14.0 94 0.0 0 0.0 1.9 6.7 336
23/05/2020 0:10 13.9 94 0.0 0 0.0 1.7 6.2 327
23/05/2020 0:20 13.9 94 0.0 0 0.0 1.5 5.4 332
23/05/2020 0:30 13.9 94 0.0 0 0.0 2.1 7.5 340
23/05/2020 0:40 13.8 94 0.0 0 0.0 1.9 6.7 335
23/05/2020 0:50 13.8 94 0.0 0 0.0 1.6 5.7 330
23/05/2020 1:00 13.7 94 0.0 0 0.0 2.0 7.1 329
23/05/2020 1:10 13.8 94 0.0 0 0.0 1.9 6.8 329
23/05/2020 1:20 13.8 94 0.0 0 0.0 2.0 7.1 326
23/05/2020 1:30 13.8 94 0.0 0 0.0 3.0 10.7 336
23/05/2020 1:40 13.7 94 0.0 0 0.0 2.6 9.4 328
23/05/2020 1:50 13.7 94 0.0 0 0.0 2.9 10.3 343
23/05/2020 2:00 13.7 94 0.0 0 0.0 2.5 9.1 339
23/05/2020 2:10 13.8 94 0.0 0 0.0 2.3 8.2 342
23/05/2020 2:20 13.8 93 0.0 0 0.0 1.9 6.7 347
23/05/2020 2:30 14.0 92 0.0 0 0.0 2.6 9.4 346
23/05/2020 2:40 14.1 92 0.0 0 0.0 2.2 8.0 351
23/05/2020 2:50 14.1 91 0.0 0 0.0 1.8 6.4 356
23/05/2020 3:00 14.1 91 0.0 0 0.0 1.7 6.2 345
23/05/2020 3:10 14.1 92 0.0 0 0.0 1.8 6.3 339
23/05/2020 3:20 14.0 92 0.0 0 0.0 2.0 7.1 345
23/05/2020 3:30 14.0 93 0.0 0 0.0 2.0 7.2 352
23/05/2020 3:40 14.0 93 0.0 0 0.0 1.5 5.5 323
23/05/2020 3:50 13.9 94 0.0 0 0.0 1.3 4.6 320
23/05/2020 4:00 13.8 94 0.0 0 0.0 1.8 6.5 329
23/05/2020 4:10 13.8 95 0.0 0 0.0 1.3 4.7 332
23/05/2020 4:20 13.7 95 0.0 0 0.0 1.3 4.8 322
23/05/2020 4:30 13.8 96 0.0 0 0.0 1.4 5.0 323
23/05/2020 4:40 13.7 95 0.0 0 0.0 1.5 5.4 323
23/05/2020 4:50 13.6 95 0.0 0 0.0 2.4 8.5 343
23/05/2020 5:00 13.6 96 0.0 0 0.0 2.2 8.0 337
23/05/2020 5:10 13.4 96 0.0 0 0.0 1.8 6.4 333
23/05/2020 5:20 13.4 97 9.7 0 0.0 1.4 5.1 328
23/05/2020 5:30 13.4 97 13.7 0 0.0 1.2 4.2 317
23/05/2020 5:40 13.5 96 34.7 0 0.0 1.3 4.5 311
23/05/2020 5:50 13.7 96 60.1 0 0.0 1.0 3.4 314
23/05/2020 6:00 13.8 94 53.8 0 0.0 1.8 6.5 316
23/05/2020 6:10 13.8 94 57.4 0 0.0 2.1 7.4 319
23/05/2020 6:20 13.8 94 85.0 0 0.0 1.9 6.7 325
23/05/2020 6:30 13.9 94 59.9 0 0.0 2.1 7.5 326
23/05/2020 6:40 13.9 94 66.2 0 0.0 2.4 8.7 326
23/05/2020 6:50 14.0 94 88.5 0 0.0 1.4 5.1 331
23/05/2020 7:00 14.3 93 90.0 0 0.0 1.1 3.8 340
23/05/2020 7:10 14.5 91 100.8 0 0.0 1.0 3.7 279
23/05/2020 7:20 14.6 90 93.5 0 0.0 1.3 4.8 317
23/05/2020 7:30 14.7 90 100.6 0 0.0 1.9 6.8 338
23/05/2020 7:40 14.5 90 143.7 0 0.0 2.4 8.7 336
23/05/2020 7:50 14.5 90 111.0 0 0.0 2.4 8.7 338
23/05/2020 8:00 14.4 91 97.3 0 0.0 2.4 8.6 324
23/05/2020 8:10 14.4 91 169.4 0 0.0 2.6 9.2 337
23/05/2020 8:20 14.5 92 147.8 0 0.0 2.4 8.7 331
23/05/2020 8:30 14.5 93 143.5 0 0.0 2.2 8.0 331
23/05/2020 8:40 14.4 92 178.8 0 0.0 2.3 8.2 336
23/05/2020 8:50 14.4 90 188.2 0 0.0 3.1 11.0 336
23/05/2020 9:00 13.9 89 193.4 0 0.0 3.5 12.6 344
23/05/2020 9:10 13.7 90 208.3 0 0.0 2.2 8.0 330
23/05/2020 9:20 13.7 89 191.2 0 0.0 2.0 7.1 339
23/05/2020 9:30 13.6 88 212.9 0 0.0 2.5 9.0 332
23/05/2020 9:40 13.6 88 198.5 0 0.0 2.2 8.0 308
23/05/2020 9:50 13.5 87 159.0 0 0.0 2.6 9.5 325
23/05/2020 10:00 13.4 87 178.0 0 0.0 2.1 7.5 323
23/05/2020 10:10 13.5 87 183.6 0 0.0 2.1 7.4 289
23/05/2020 10:20 13.4 87 194.2 0 0.0 1.5 5.3 302
23/05/2020 10:30 13.3 87 221.0 0 0.0 1.8 6.5 304
23/05/2020 10:40 13.1 87 262.6 0 0.0 2.2 7.8 309
23/05/2020 10:50 13.1 87 311.6 0 0.0 3.2 11.5 341
23/05/2020 11:00 12.9 87 373.0 0 0.0 3.0 10.7 336
23/05/2020 11:10 13.1 86 391.3 34 0.0 2.8 10.2 339
23/05/2020 11:20 13.2 84 445.4 154 0.0 3.4 12.3 339
23/05/2020 11:30 13.2 85 443.6 60 0.0 3.5 12.6 336
23/05/2020 11:40 13.1 84 462.8 112 0.0 3.6 12.9 336
23/05/2020 11:50 13.1 84 390.1 0 0.0 2.9 10.4 336
23/05/2020 12:00 13.2 84 498.7 256 0.0 2.5 9.0 321
23/05/2020 12:10 13.6 82 633.8 486 0.0 2.8 10.2 329
23/05/2020 12:20 12.9 84 354.3 0 0.0 3.8 13.8 329
23/05/2020 12:30 12.4 88 264.0 0 0.0 3.8 13.6 332
23/05/2020 12:40 12.2 90 275.2 0 0.0 3.4 12.3 327
23/05/2020 12:50 12.0 90 178.4 0 0.0 2.5 9.0 340
23/05/2020 13:00 11.7 91 189.8 0 0.0 3.4 12.4 331
23/05/2020 13:10 11.3 92 219.0 0 0.0 3.2 11.7 331
23/05/2020 13:20 11.0 91 301.8 0 0.0 4.6 16.6 335
23/05/2020 13:30 10.7 91 209.6 0 0.0 4.5 16.3 335
23/05/2020 13:40 10.5 91 402.6 134 0.0 3.5 12.4 327
23/05/2020 13:50 10.8 89 510.8 334 0.0 3.9 13.9 324
23/05/2020 14:00 11.4 85 659.1 480 0.0 4.2 15.0 324
23/05/2020 14:10 12.4 80 874.0 578 0.0 3.7 13.3 327
23/05/2020 14:20 12.4 80 749.1 600 0.0 4.6 16.4 326
23/05/2020 14:30 12.2 80 566.3 362 0.0 4.0 14.5 330
23/05/2020 14:40 12.0 82 419.9 144 0.0 3.9 14.0 329
23/05/2020 14:50 11.8 83 261.8 0 0.0 3.3 12.0 332
23/05/2020 15:00 11.7 85 182.5 0 0.0 2.6 9.4 334
23/05/2020 15:10 11.5 86 198.5 0 0.0 3.0 10.6 320
23/05/2020 15:20 11.8 86 199.5 0 0.0 2.0 7.1 326
23/05/2020 15:30 12.0 85 256.7 4 0.0 1.9 6.9 326
23/05/2020 15:40 12.3 84 243.9 0 0.0 2.5 8.9 334
23/05/2020 15:50 12.5 81 506.0 532 0.0 3.9 14.0 331
23/05/2020 16:00 12.7 81 285.7 144 0.0 3.8 13.7 334
23/05/2020 16:10 12.3 84 244.7 58 0.0 3.4 12.3 332
23/05/2020 16:20 12.3 85 177.8 38 0.0 2.5 9.1 330
23/05/2020 16:30 12.0 86 52.1 0 0.0 2.6 9.5 333
23/05/2020 16:40 11.7 89 60.9 0 0.0 3.4 12.2 341
23/05/2020 16:50 11.5 90 56.7 0 0.0 2.8 10.1 345
23/05/2020 17:00 11.5 90 138.1 0 0.0 2.4 8.8 329
23/05/2020 17:10 11.8 88 112.5 0 0.0 3.3 12.0 341
23/05/2020 17:20 11.8 87 91.7 0 0.0 3.4 12.1 345
23/05/2020 17:30 11.8 85 73.3 0 0.0 2.9 10.4 334
23/05/2020 17:40 12.0 83 86.7 0 0.0 3.3 11.9 336
23/05/2020 17:50 12.1 82 82.7 0 0.0 3.7 13.3 338
23/05/2020 18:00 12.0 82 90.4 4 0.0 3.4 12.1 332
23/05/2020 18:10 12.1 81 87.1 62 0.0 3.3 12.0 341
23/05/2020 18:20 12.1 80 90.1 56 0.0 3.3 11.9 342
23/05/2020 18:30 11.9 81 46.3 0 0.0 3.9 14.1 341
23/05/2020 18:40 11.7 82 37.6 0 0.0 3.7 13.3 340
23/05/2020 18:50 11.6 83 19.3 0 0.0 2.8 10.2 348
23/05/2020 19:00 11.5 83 1.7 0 0.0 3.2 11.4 347
23/05/2020 19:10 11.4 84 0.0 0 0.0 3.6 13.1 344
23/05/2020 19:20 11.2 86 0.0 0 0.0 2.8 10.1 328
23/05/2020 19:30 11.1 87 0.0 0 0.0 3.0 10.9 332
23/05/2020 19:40 11.0 86 0.0 0 0.0 2.9 10.4 335
23/05/2020 19:50 10.9 88 0.0 0 0.0 3.2 11.6 328
23/05/2020 20:00 10.8 89 0.0 0 0.0 3.1 11.2 336
23/05/2020 20:10 10.7 91 0.0 0 0.0 2.6 9.3 334
23/05/2020 20:20 10.6 91 0.0 0 0.0 2.8 10.1 341
23/05/2020 20:30 10.7 90 0.0 0 0.0 3.6 13.0 336
23/05/2020 20:40 10.8 90 0.0 0 0.0 2.4 8.6 337
23/05/2020 20:50 10.9 90 0.0 0 0.0 3.0 10.9 337
23/05/2020 21:00 10.9 90 0.0 0 0.0 2.4 8.7 336
23/05/2020 21:10 10.9 90 0.0 0 0.0 2.0 7.0 338
23/05/2020 21:20 10.9 90 0.0 0 0.0 2.0 7.2 338
23/05/2020 21:30 10.9 90 0.0 0 0.0 1.8 6.3 339
23/05/2020 21:40 11.0 90 0.0 0 0.0 2.0 7.2 332
23/05/2020 21:50 11.0 89 0.0 0 0.0 3.1 11.1 337
23/05/2020 22:00 11.0 88 0.0 0 0.0 2.9 10.3 337
23/05/2020 22:10 11.0 88 0.0 0 0.0 2.8 10.2 332
23/05/2020 22:20 10.9 88 0.0 0 0.0 1.9 6.9 336
23/05/2020 22:30 10.9 87 0.0 0 0.0 1.8 6.3 336
23/05/2020 22:40 10.9 87 0.0 0 0.0 2.1 7.5 332
23/05/2020 22:50 11.0 86 0.0 0 0.0 1.9 6.8 326
23/05/2020 23:00 10.9 87 0.0 0 0.0 2.1 7.5 335
23/05/2020 23:10 10.9 87 0.0 0 0.0 2.3 8.2 334
23/05/2020 23:20 10.8 88 0.0 0 0.0 2.4 8.6 330
23/05/2020 23:30 10.7 88 0.0 0 0.0 2.1 7.5 351
23/05/2020 23:40 10.5 90 0.0 0 0.0 2.8 9.9 338
23/05/2020 23:50 10.4 91 0.0 0 0.0 2.3 8.4 328
Anterior Página 1 de 1 Siguiente

NOTA: Tipo de datos según el color:
   - Valores diarios o 10 minutos correctos
   - Valores diarios calculados a partir de un número de datos 10 minutos menor que 144 y mayor que 120, o de un número de datos semihorarios menor que 48 y mayor que 40 (caso de las estaciones de INTIA y del Ministerio)
   - Valores diez minutos estimados


Contacto        Enlaces        Aviso legal